Aviation Digital Data Service (ADDS)

Output produced by METARs form (0454 UTC 16 February 2019)
found at http://www.aviationweather.gov/metar/data/
 
METAR text: HDAM 160400Z 10006KT 9999 FEW020 26/23 Q1017
Conditions at: HDAM (AMBOULI DJIBOUTI, DJ) observed 0400 UTC 16 February 2019
Temperature: 26.0°C (79°F)
Dewpoint: 23.0°C (73°F) [RH = 84%]
Pressure (altimeter): 30.03 inches Hg (1017.0 mb)
Winds: from the E (100 degrees) at 7 MPH (6 knots; 3.1 m/s)
Visibility: 6 or more miles (10+ km)
Ceiling: at least 12,000 feet AGL
Clouds: few clouds at 2000 feet AGL
Weather: no significant weather observed at this time

METAR text: HDAM 152100Z 12008KT 9999 SCT020 BKN026 27/25 Q1016
Conditions at: HDAM (AMBOULI DJIBOUTI, DJ) observed 2100 UTC 15 February 2019
Temperature: 27.0°C (81°F)
Dewpoint: 25.0°C (77°F) [RH = 89%]
Pressure (altimeter): 30.00 inches Hg (1016.0 mb)
Winds: from the ESE (120 degrees) at 9 MPH (8 knots; 4.1 m/s)
Visibility: 6 or more miles (10+ km)
Ceiling: 2600 feet AGL
Clouds: scattered clouds at 2000 feet AGL
broken clouds at 2600 feet AGL
Weather: no significant weather observed at this time

METAR text: HDAM 150900Z 08015KT 9999 FEW023 SCT030 31/23 Q1016
Conditions at: HDAM (AMBOULI DJIBOUTI, DJ) observed 0900 UTC 15 February 2019
Temperature: 31.0°C (88°F)
Dewpoint: 23.0°C (73°F) [RH = 63%]
Pressure (altimeter): 30.00 inches Hg (1016.0 mb)
Winds: from the E (80 degrees) at 17 MPH (15 knots; 7.7 m/s)
Visibility: 6 or more miles (10+ km)
Ceiling: at least 12,000 feet AGL
Clouds: few clouds at 2300 feet AGL
scattered clouds at 3000 feet AGL
Weather: no significant weather observed at this time

METAR text: HDAM 150500Z 09010KT 9999 BKN020 27/23 Q1017
Conditions at: HDAM (AMBOULI DJIBOUTI, DJ) observed 0500 UTC 15 February 2019
Temperature: 27.0°C (81°F)
Dewpoint: 23.0°C (73°F) [RH = 79%]
Pressure (altimeter): 30.03 inches Hg (1017.0 mb)
Winds: from the E (90 degrees) at 12 MPH (10 knots; 5.1 m/s)
Visibility: 6 or more miles (10+ km)
Ceiling: 2000 feet AGL
Clouds: broken clouds at 2000 feet AGL
Weather: no significant weather observed at this time

Forecast for: HDAM (AMBOULI DJIBOUTI, DJ)
Text: HDAM 152200Z 1600/1624 10010KT 9000-SHRA BKN020 SCT030
Forecast period: 0000 to 0600 UTC 16 February 2019
Forecast type: FROM: standard forecast or significant change
Winds: from the E (100 degrees) at 12 MPH (10 knots; 5.1 m/s)
Visibility: missing
Ceiling: 2000 feet AGL
Clouds: broken clouds at 2000 feet AGL
scattered clouds at 3000 feet AGL
Weather: -SHRA  (light rain showers)
Text: BECMG 1606/1612 08010G15KT SCT023 SCT030
Forecast period: 0600 to 1500 UTC 16 February 2019
Forecast type: BECOMING: Conditions expected to become as follows by 1200 UTC 16 February 2019
Winds: from the E (80 degrees) at 12 MPH (10 knots; 5.1 m/s)
gusting to 17 MPH (15 knots; 7.7 m/s)
Visibility: missing
Ceiling: at least 12,000 feet AGL
Clouds: scattered clouds at 2300 feet AGL
scattered clouds at 3000 feet AGL
Weather: -SHRA  (light rain showers)
Text: BECMG 1615/1618 VRB05KT FEW020
Forecast period: 1500 UTC 16 February 2019 to 0000 UTC 17 February 2019
Forecast type: BECOMING: Conditions expected to become as follows by 1800 UTC 16 February 2019
Winds: variable direction winds at 6 MPH (5 knots; 2.6 m/s)
Visibility: missing
Ceiling: at least 12,000 feet AGL
Clouds: few clouds at 2000 feet AGL
Weather: -SHRA  (light rain showers)